createdAt,value
2023-01-29T00:00:28.438Z,29
2023-01-29T00:01:29.055Z,25
2023-01-29T00:02:28.515Z,26
2023-01-29T00:03:28.531Z,27
2023-01-29T00:04:29.297Z,24
2023-01-29T00:05:28.918Z,24
2023-01-29T00:06:27.259Z,26
2023-01-29T00:07:28.484Z,27
2023-01-29T00:08:28.452Z,24
2023-01-29T00:09:28.423Z,24
2023-01-29T00:10:29.244Z,27
2023-01-29T00:11:29.137Z,25
2023-01-29T00:12:29.248Z,26
2023-01-29T00:13:28.450Z,24
2023-01-29T00:14:28.443Z,23
2023-01-29T00:15:28.511Z,22
2023-01-29T00:16:28.789Z,24
2023-01-29T00:17:28.424Z,24
2023-01-29T00:18:28.495Z,24
2023-01-29T00:19:28.827Z,23
2023-01-29T00:20:28.608Z,23
2023-01-29T00:21:28.985Z,23
2023-01-29T00:22:28.572Z,24
2023-01-29T00:23:28.504Z,24
2023-01-29T00:24:29.114Z,25
2023-01-29T00:25:28.452Z,23
2023-01-29T00:26:28.455Z,21
2023-01-29T00:27:28.593Z,21
2023-01-29T00:28:28.552Z,23
2023-01-29T00:29:28.995Z,22
2023-01-29T00:30:28.482Z,24
2023-01-29T00:31:29.294Z,23
2023-01-29T00:32:28.849Z,23
2023-01-29T00:33:28.490Z,23
2023-01-29T00:34:28.455Z,23
2023-01-29T00:35:28.442Z,22
2023-01-29T00:36:29.172Z,21
2023-01-29T00:37:28.468Z,22
2023-01-29T00:38:28.997Z,23
2023-01-29T00:39:42.506Z,21
2023-01-29T00:40:28.476Z,21
2023-01-29T00:41:28.689Z,21
2023-01-29T00:42:28.920Z,21
2023-01-29T00:43:28.450Z,21
2023-01-29T00:44:28.815Z,22
2023-01-29T00:45:28.978Z,22
2023-01-29T00:46:28.475Z,22
2023-01-29T00:47:28.745Z,22
2023-01-29T00:48:28.542Z,21
2023-01-29T00:49:28.469Z,20
2023-01-29T00:50:28.543Z,21
2023-01-29T00:51:28.513Z,20
2023-01-29T00:52:28.995Z,21
2023-01-29T00:53:29.190Z,22
2023-01-29T00:54:28.432Z,22
2023-01-29T00:55:28.460Z,22
2023-01-29T00:56:28.502Z,22
2023-01-29T00:57:28.491Z,22
2023-01-29T00:58:29.017Z,21
2023-01-29T00:59:28.536Z,23
2023-01-29T01:00:28.932Z,22
2023-01-29T01:01:28.520Z,22
2023-01-29T01:02:28.939Z,23
2023-01-29T01:03:28.553Z,23
2023-01-29T01:04:29.279Z,23
2023-01-29T01:05:29.133Z,23
2023-01-29T01:06:28.900Z,24
2023-01-29T01:07:28.978Z,22
2023-01-29T01:08:29.250Z,21
2023-01-29T01:09:29.123Z,23
2023-01-29T01:10:28.482Z,23
2023-01-29T01:11:28.597Z,22
2023-01-29T01:12:28.735Z,22
2023-01-29T01:13:28.506Z,23
2023-01-29T01:14:28.935Z,22
2023-01-29T01:15:28.443Z,23
2023-01-29T01:16:28.570Z,22
2023-01-29T01:17:29.235Z,22
2023-01-29T01:18:28.419Z,22
2023-01-29T01:19:28.975Z,20
2023-01-29T01:20:28.414Z,22
2023-01-29T01:21:28.458Z,22
2023-01-29T01:22:28.744Z,22
2023-01-29T01:23:28.911Z,21
2023-01-29T01:24:28.637Z,22
2023-01-29T01:25:28.521Z,22
2023-01-29T01:26:28.436Z,22
2023-01-29T01:27:28.415Z,22
2023-01-29T01:28:28.430Z,22
2023-01-29T01:29:28.715Z,21
2023-01-29T01:30:29.005Z,21
2023-01-29T01:31:29.479Z,21
2023-01-29T01:32:28.832Z,21
2023-01-29T01:33:28.530Z,22
2023-01-29T01:34:28.947Z,21
2023-01-29T01:35:29.307Z,21
2023-01-29T01:36:27.324Z,22
2023-01-29T01:37:28.567Z,23
2023-01-29T01:38:28.700Z,22
2023-01-29T01:39:28.887Z,21
2023-01-29T01:40:28.481Z,23
2023-01-29T01:41:28.982Z,23
2023-01-29T01:42:28.423Z,24
2023-01-29T01:43:28.462Z,24
2023-01-29T01:44:28.805Z,23
2023-01-29T01:45:28.562Z,23
2023-01-29T01:46:29.219Z,23
2023-01-29T01:47:28.517Z,24
2023-01-29T01:48:28.446Z,23
2023-01-29T01:49:28.952Z,23
2023-01-29T01:50:28.978Z,23
2023-01-29T01:51:28.449Z,21
2023-01-29T01:52:28.959Z,22
2023-01-29T01:53:28.976Z,21
2023-01-29T01:54:28.977Z,24
2023-01-29T01:55:28.702Z,24
2023-01-29T01:56:28.650Z,24
2023-01-29T01:57:28.454Z,25
2023-01-29T01:58:28.623Z,24
2023-01-29T01:59:28.421Z,24
2023-01-29T02:00:29.206Z,24
2023-01-29T02:01:28.468Z,23
2023-01-29T02:02:29.406Z,22
2023-01-29T02:03:28.515Z,25
2023-01-29T02:04:28.526Z,24
2023-01-29T02:05:28.402Z,25
2023-01-29T02:06:29.005Z,25
2023-01-29T02:07:28.441Z,25
2023-01-29T02:08:29.367Z,25
2023-01-29T02:09:28.468Z,24
2023-01-29T02:10:28.698Z,24
2023-01-29T02:11:28.992Z,23
2023-01-29T02:12:29.085Z,25
2023-01-29T02:13:28.415Z,25
2023-01-29T02:14:28.438Z,27
2023-01-29T02:15:28.482Z,24
2023-01-29T02:16:29.114Z,25
2023-01-29T02:17:29.161Z,24
2023-01-29T02:18:29.038Z,25
2023-01-29T02:19:28.621Z,26
2023-01-29T02:20:28.402Z,25
2023-01-29T02:21:28.422Z,27
2023-01-29T02:22:28.433Z,24
2023-01-29T02:23:29.395Z,25
2023-01-29T02:24:28.499Z,26
2023-01-29T02:25:28.847Z,27
2023-01-29T02:26:29.068Z,26
2023-01-29T02:27:28.413Z,27
2023-01-29T02:28:29.208Z,25
2023-01-29T02:29:29.109Z,26
2023-01-29T02:30:29.095Z,27
2023-01-29T02:31:28.455Z,26
2023-01-29T02:32:29.045Z,27
2023-01-29T02:33:28.631Z,26
2023-01-29T02:34:28.479Z,27
2023-01-29T02:35:28.402Z,26
2023-01-29T02:36:28.522Z,26
2023-01-29T02:37:28.444Z,26
2023-01-29T02:38:29.044Z,24
2023-01-29T02:39:29.484Z,26
2023-01-29T02:40:28.404Z,25
2023-01-29T02:41:28.595Z,27
2023-01-29T02:42:28.459Z,27
2023-01-29T02:43:27.479Z,27
2023-01-29T02:44:28.446Z,29
2023-01-29T02:45:29.121Z,26
2023-01-29T02:46:28.413Z,26
2023-01-29T02:47:28.398Z,26
2023-01-29T02:48:28.522Z,26
2023-01-29T02:49:28.550Z,28
2023-01-29T02:50:28.743Z,26
2023-01-29T02:51:28.894Z,26
2023-01-29T02:52:29.138Z,26
2023-01-29T02:53:28.534Z,26
2023-01-29T02:54:28.612Z,27
2023-01-29T02:55:28.442Z,28
2023-01-29T02:56:28.476Z,26
2023-01-29T02:57:29.192Z,27
2023-01-29T02:58:28.726Z,26
2023-01-29T02:59:28.468Z,26
2023-01-29T03:00:29.106Z,25
2023-01-29T03:01:29.289Z,26
2023-01-29T03:02:28.628Z,27
2023-01-29T03:03:28.806Z,26
2023-01-29T03:04:29.029Z,27
2023-01-29T03:05:27.228Z,26
2023-01-29T03:06:29.160Z,27
2023-01-29T03:07:28.930Z,27
2023-01-29T03:08:28.949Z,27
2023-01-29T03:09:29.167Z,27
2023-01-29T03:10:29.258Z,24
2023-01-29T03:11:28.964Z,26
2023-01-29T03:12:29.164Z,27
2023-01-29T03:13:28.402Z,27
2023-01-29T03:14:28.439Z,26
2023-01-29T03:15:28.575Z,26
2023-01-29T03:16:28.561Z,27
2023-01-29T03:17:28.418Z,27
2023-01-29T03:18:29.016Z,25
2023-01-29T03:19:28.425Z,26
2023-01-29T03:20:28.780Z,26
2023-01-29T03:21:28.736Z,25
2023-01-29T03:22:29.020Z,23
2023-01-29T03:23:28.382Z,24
2023-01-29T03:24:28.862Z,28
2023-01-29T03:25:28.942Z,25
2023-01-29T03:26:28.443Z,24
2023-01-29T03:27:28.400Z,25
2023-01-29T03:28:29.156Z,24
2023-01-29T03:29:29.400Z,23
2023-01-29T03:30:28.405Z,24
2023-01-29T03:31:28.545Z,25
2023-01-29T03:32:28.475Z,24
2023-01-29T03:33:28.631Z,24
2023-01-29T03:34:29.172Z,23
2023-01-29T03:35:28.450Z,22
2023-01-29T03:36:28.745Z,25
2023-01-29T03:37:29.113Z,24
2023-01-29T03:38:29.229Z,23
2023-01-29T03:39:28.444Z,24
2023-01-29T03:40:28.516Z,24
2023-01-29T03:41:28.753Z,24
2023-01-29T03:42:28.541Z,23
2023-01-29T03:43:29.361Z,25
2023-01-29T03:44:28.451Z,24
2023-01-29T03:45:28.469Z,24
2023-01-29T03:46:28.462Z,27
2023-01-29T03:47:28.385Z,24
2023-01-29T03:48:29.071Z,27
2023-01-29T03:49:28.420Z,28
2023-01-29T03:50:28.995Z,28
2023-01-29T03:51:28.583Z,30
2023-01-29T03:52:29.435Z,29
2023-01-29T03:53:28.507Z,28
2023-01-29T03:54:28.716Z,29
2023-01-29T03:55:29.269Z,29
2023-01-29T03:56:28.416Z,29
2023-01-29T03:57:28.517Z,28
2023-01-29T03:58:28.733Z,28
2023-01-29T03:59:29.054Z,30
2023-01-29T04:00:28.412Z,30
2023-01-29T04:01:28.408Z,29
2023-01-29T04:02:29.117Z,29
2023-01-29T04:03:28.406Z,26
2023-01-29T04:04:28.561Z,25
2023-01-29T04:05:28.639Z,26
2023-01-29T04:06:29.364Z,25
2023-01-29T04:07:28.384Z,26
2023-01-29T04:08:28.513Z,26
2023-01-29T04:09:29.027Z,26
2023-01-29T04:10:29.137Z,27
2023-01-29T04:11:28.396Z,25
2023-01-29T04:12:27.262Z,26
2023-01-29T04:13:28.853Z,26
2023-01-29T04:14:28.428Z,25
2023-01-29T04:15:28.466Z,25
2023-01-29T04:16:28.522Z,26
2023-01-29T04:17:28.464Z,25
2023-01-29T04:18:28.856Z,26
2023-01-29T04:19:28.897Z,27
2023-01-29T04:20:28.384Z,25
2023-01-29T04:21:28.910Z,24
2023-01-29T04:22:28.486Z,26
2023-01-29T04:23:28.897Z,26
2023-01-29T04:24:29.286Z,25
2023-01-29T04:25:28.425Z,26
2023-01-29T04:26:29.048Z,24
2023-01-29T04:27:29.146Z,24
2023-01-29T04:28:29.061Z,24
2023-01-29T04:29:30.166Z,25
2023-01-29T04:30:29.163Z,24
2023-01-29T04:31:28.555Z,24
2023-01-29T04:32:28.952Z,25
2023-01-29T04:33:29.095Z,25
2023-01-29T04:34:28.383Z,26
2023-01-29T04:35:28.892Z,26
2023-01-29T04:36:28.881Z,25
2023-01-29T04:37:29.100Z,26
2023-01-29T04:38:28.998Z,25
2023-01-29T04:39:28.916Z,24
2023-01-29T04:40:28.507Z,23
2023-01-29T04:41:28.594Z,26
2023-01-29T04:42:29.027Z,25
2023-01-29T04:43:28.728Z,26
2023-01-29T04:44:28.825Z,26
2023-01-29T04:45:28.950Z,25
2023-01-29T04:46:29.350Z,24
2023-01-29T04:47:28.448Z,26
2023-01-29T04:48:28.451Z,24
2023-01-29T04:49:29.186Z,25
2023-01-29T04:50:29.059Z,33
2023-01-29T04:51:28.529Z,28
2023-01-29T04:52:28.380Z,29
2023-01-29T04:53:29.176Z,28
2023-01-29T04:54:29.271Z,30
2023-01-29T04:55:29.332Z,28
2023-01-29T04:56:29.267Z,29
2023-01-29T04:57:27.362Z,31
2023-01-29T04:58:28.609Z,29
2023-01-29T04:59:29.136Z,29
2023-01-29T05:00:29.150Z,28
2023-01-29T05:01:28.453Z,28
2023-01-29T05:02:29.228Z,28
2023-01-29T05:03:28.835Z,27
2023-01-29T05:04:29.093Z,24
2023-01-29T05:05:28.417Z,27
2023-01-29T05:06:28.391Z,26
2023-01-29T05:07:28.770Z,26
2023-01-29T05:08:28.388Z,26
2023-01-29T05:09:28.425Z,25
2023-01-29T05:10:28.587Z,23
2023-01-29T05:11:29.001Z,27
2023-01-29T05:12:28.393Z,24
2023-01-29T05:13:29.425Z,24
2023-01-29T05:14:29.332Z,23
2023-01-29T05:15:28.394Z,26
2023-01-29T05:16:28.395Z,24
2023-01-29T05:17:29.049Z,24
2023-01-29T05:18:28.907Z,23
2023-01-29T05:19:28.392Z,23
2023-01-29T05:20:29.167Z,23
2023-01-29T05:21:28.459Z,24
2023-01-29T05:22:28.457Z,22
2023-01-29T05:23:30.955Z,23
2023-01-29T05:24:28.551Z,24
2023-01-29T05:25:28.606Z,23
2023-01-29T05:26:28.668Z,23
2023-01-29T05:27:28.833Z,23
2023-01-29T05:28:28.809Z,23
2023-01-29T05:29:28.377Z,24
2023-01-29T05:30:28.637Z,24
2023-01-29T05:31:28.509Z,22
2023-01-29T05:32:28.796Z,25
2023-01-29T05:33:28.390Z,24
2023-01-29T05:34:28.410Z,24
2023-01-29T05:35:28.839Z,25
2023-01-29T05:36:28.756Z,25
2023-01-29T05:37:29.089Z,24
2023-01-29T05:38:28.887Z,24
2023-01-29T05:39:28.464Z,24
2023-01-29T05:40:28.506Z,24
2023-01-29T05:41:29.090Z,24
2023-01-29T05:42:28.571Z,25
2023-01-29T05:43:28.401Z,25
2023-01-29T05:44:29.116Z,25
2023-01-29T05:45:28.842Z,25
2023-01-29T05:46:29.327Z,25
2023-01-29T05:47:28.376Z,22
2023-01-29T05:48:28.871Z,24
2023-01-29T05:49:29.265Z,26
2023-01-29T05:50:28.413Z,26
2023-01-29T05:51:28.383Z,24
2023-01-29T05:52:29.171Z,24
2023-01-29T05:53:28.558Z,26
2023-01-29T05:54:28.379Z,25
2023-01-29T05:55:28.705Z,23
2023-01-29T05:56:28.488Z,26
2023-01-29T05:57:28.581Z,25
2023-01-29T05:58:28.645Z,26
2023-01-29T05:59:28.496Z,25
2023-01-29T06:00:28.732Z,24
2023-01-29T06:01:29.289Z,24
2023-01-29T06:02:28.411Z,24
2023-01-29T06:03:28.938Z,23
2023-01-29T06:04:27.248Z,24
2023-01-29T06:05:28.726Z,25
2023-01-29T06:06:28.796Z,25
2023-01-29T06:07:28.630Z,23
2023-01-29T06:08:28.987Z,25
2023-01-29T06:09:28.457Z,23
2023-01-29T06:10:29.194Z,24
2023-01-29T06:11:28.385Z,23
2023-01-29T06:12:28.487Z,24
2023-01-29T06:13:29.099Z,24
2023-01-29T06:14:28.508Z,24
2023-01-29T06:15:28.532Z,24
2023-01-29T06:16:28.427Z,24
2023-01-29T06:17:29.027Z,24
2023-01-29T06:18:28.745Z,24
2023-01-29T06:19:28.989Z,24
2023-01-29T06:20:28.398Z,25
2023-01-29T06:21:28.772Z,25
2023-01-29T06:22:28.488Z,25
2023-01-29T06:23:28.970Z,25
2023-01-29T06:24:28.942Z,23
2023-01-29T06:25:29.966Z,25
2023-01-29T06:26:27.788Z,23
2023-01-29T06:27:28.473Z,24
2023-01-29T06:28:28.375Z,25
2023-01-29T06:29:28.437Z,24
2023-01-29T06:30:28.997Z,24
2023-01-29T06:31:38.256Z,23
2023-01-29T06:32:28.446Z,24
2023-01-29T06:33:28.804Z,23
2023-01-29T06:34:28.450Z,24
2023-01-29T06:35:28.778Z,24
2023-01-29T06:36:28.613Z,24
2023-01-29T06:37:28.391Z,25
2023-01-29T06:38:28.952Z,24
2023-01-29T06:39:28.445Z,23
2023-01-29T06:40:28.467Z,25
2023-01-29T06:41:28.869Z,24
2023-01-29T06:42:28.892Z,26
2023-01-29T06:43:28.985Z,26
2023-01-29T06:44:28.898Z,24
2023-01-29T06:45:28.534Z,23
2023-01-29T06:46:28.494Z,23
2023-01-29T06:47:29.108Z,23
2023-01-29T06:48:27.275Z,25
2023-01-29T06:49:29.364Z,24
2023-01-29T06:50:29.102Z,22
2023-01-29T06:51:29.298Z,23
2023-01-29T06:52:28.428Z,24
2023-01-29T06:53:28.949Z,24
2023-01-29T06:54:28.446Z,22
2023-01-29T06:55:28.631Z,24
2023-01-29T06:56:28.447Z,25
2023-01-29T06:57:28.480Z,25
2023-01-29T06:58:28.988Z,25
2023-01-29T06:59:28.602Z,25
2023-01-29T07:00:30.625Z,26
2023-01-29T07:01:35.995Z,29
2023-01-29T07:02:28.431Z,27
2023-01-29T07:03:28.694Z,27
2023-01-29T07:04:28.633Z,25
2023-01-29T07:05:28.369Z,26
2023-01-29T07:06:28.396Z,23
2023-01-29T07:07:28.412Z,25
2023-01-29T07:08:29.245Z,26
2023-01-29T07:09:29.143Z,27
2023-01-29T07:10:28.363Z,23
2023-01-29T07:11:29.021Z,24
2023-01-29T07:12:28.915Z,26
2023-01-29T07:13:28.412Z,26
2023-01-29T07:14:28.976Z,24
2023-01-29T07:15:28.799Z,25
2023-01-29T07:16:28.471Z,28
2023-01-29T07:17:28.629Z,26
2023-01-29T07:18:28.427Z,28
2023-01-29T07:19:28.381Z,29
2023-01-29T07:20:28.413Z,27
2023-01-29T07:21:29.342Z,28
2023-01-29T07:22:28.682Z,30
2023-01-29T07:23:28.830Z,27
2023-01-29T07:24:29.288Z,28
2023-01-29T07:25:28.426Z,31
2023-01-29T07:26:28.880Z,30
2023-01-29T07:27:28.443Z,31
2023-01-29T07:28:28.449Z,29
2023-01-29T07:29:28.705Z,31
2023-01-29T07:30:28.381Z,30
2023-01-29T07:31:28.973Z,30
2023-01-29T07:32:28.455Z,31
2023-01-29T07:33:28.778Z,32
2023-01-29T07:34:28.653Z,31
2023-01-29T07:35:28.421Z,30
2023-01-29T07:36:28.723Z,30
2023-01-29T07:37:28.717Z,30
2023-01-29T07:38:28.754Z,30
2023-01-29T07:39:29.252Z,30
2023-01-29T07:40:28.529Z,30
2023-01-29T07:41:28.949Z,30
2023-01-29T07:42:29.041Z,29
2023-01-29T07:43:29.113Z,32
2023-01-29T07:44:28.960Z,30
2023-01-29T07:45:28.532Z,29
2023-01-29T07:46:28.483Z,32
2023-01-29T07:47:28.472Z,32
2023-01-29T07:48:28.484Z,31
2023-01-29T07:49:28.414Z,31
2023-01-29T07:50:28.654Z,31
2023-01-29T07:51:30.736Z,32
2023-01-29T07:52:28.366Z,32
2023-01-29T07:53:28.808Z,31
2023-01-29T07:54:29.226Z,31
2023-01-29T07:55:28.903Z,31
2023-01-29T07:56:28.695Z,31
2023-01-29T07:57:28.825Z,32
2023-01-29T07:58:28.480Z,32
2023-01-29T07:59:29.059Z,30
2023-01-29T08:00:29.065Z,31
2023-01-29T08:01:29.255Z,32
2023-01-29T08:02:28.794Z,31
2023-01-29T08:03:28.474Z,31
2023-01-29T08:04:28.477Z,31
2023-01-29T08:05:29.028Z,29
2023-01-29T08:06:28.505Z,30
2023-01-29T08:07:28.908Z,30
2023-01-29T08:08:28.925Z,29
2023-01-29T08:09:28.351Z,28
2023-01-29T08:10:28.529Z,30
2023-01-29T08:11:28.445Z,28
2023-01-29T08:12:28.525Z,30
2023-01-29T08:13:28.364Z,28
2023-01-29T08:14:29.017Z,30
2023-01-29T08:15:28.763Z,29
2023-01-29T08:16:28.557Z,30
2023-01-29T08:17:28.764Z,29
2023-01-29T08:18:28.070Z,30
2023-01-29T08:19:29.082Z,31
2023-01-29T08:20:28.701Z,29
2023-01-29T08:21:28.704Z,30
2023-01-29T08:22:28.358Z,30
2023-01-29T08:23:28.370Z,29
2023-01-29T08:24:41.483Z,29
2023-01-29T08:25:29.271Z,28
2023-01-29T08:26:28.856Z,29
2023-01-29T08:27:28.673Z,29
2023-01-29T08:28:28.498Z,30
2023-01-29T08:29:28.846Z,30
2023-01-29T08:30:29.054Z,32
2023-01-29T08:31:28.496Z,31
2023-01-29T08:32:28.863Z,31
2023-01-29T08:33:38.357Z,30
2023-01-29T08:34:29.190Z,30
2023-01-29T08:35:28.384Z,28
2023-01-29T08:36:28.363Z,30
2023-01-29T08:37:29.102Z,31
2023-01-29T08:38:28.834Z,32
2023-01-29T08:39:28.906Z,31
2023-01-29T08:40:29.033Z,29
2023-01-29T08:41:28.926Z,31
2023-01-29T08:42:28.519Z,30
2023-01-29T08:43:28.423Z,30
2023-01-29T08:44:29.048Z,31
2023-01-29T08:45:28.431Z,29
2023-01-29T08:46:28.457Z,30
2023-01-29T08:47:29.568Z,30
2023-01-29T08:48:28.453Z,28
2023-01-29T08:49:28.998Z,29
2023-01-29T08:50:28.372Z,29
2023-01-29T08:51:29.313Z,27
2023-01-29T08:52:29.091Z,29
2023-01-29T08:53:29.011Z,27
2023-01-29T08:54:28.999Z,30
2023-01-29T08:55:28.496Z,29
2023-01-29T08:56:28.710Z,28
2023-01-29T08:57:28.815Z,30
2023-01-29T08:58:28.819Z,28
2023-01-29T08:59:28.838Z,30
2023-01-29T09:00:28.432Z,28
2023-01-29T09:01:28.408Z,30
2023-01-29T09:02:29.111Z,28
2023-01-29T09:03:28.968Z,27
2023-01-29T09:04:28.382Z,28
2023-01-29T09:05:28.376Z,27
2023-01-29T09:06:28.422Z,27
2023-01-29T09:07:28.382Z,28
2023-01-29T09:08:28.513Z,29
2023-01-29T09:09:29.219Z,29
2023-01-29T09:10:30.137Z,28
2023-01-29T09:11:28.411Z,28
2023-01-29T09:12:28.817Z,26
2023-01-29T09:13:28.343Z,27
2023-01-29T09:14:28.832Z,28
2023-01-29T09:15:28.668Z,31
2023-01-29T09:16:29.038Z,32
2023-01-29T09:17:28.428Z,30
2023-01-29T09:18:28.347Z,29
2023-01-29T09:19:28.969Z,28
2023-01-29T09:20:28.354Z,28
2023-01-29T09:21:28.379Z,31
2023-01-29T09:22:28.363Z,34
2023-01-29T09:23:29.077Z,37
2023-01-29T09:24:29.004Z,30
2023-01-29T09:25:28.781Z,28
2023-01-29T09:26:27.438Z,30
2023-01-29T09:27:28.372Z,33
2023-01-29T09:28:28.378Z,31
2023-01-29T09:29:28.720Z,31
2023-01-29T09:30:29.007Z,29
2023-01-29T09:31:30.204Z,31
2023-01-29T09:33:28.902Z,31
2023-01-29T09:34:28.346Z,31
2023-01-29T09:35:28.369Z,30
2023-01-29T09:36:28.383Z,33
2023-01-29T09:37:28.348Z,34
2023-01-29T09:38:28.413Z,30
2023-01-29T09:39:29.218Z,32
2023-01-29T09:40:28.745Z,31
2023-01-29T09:41:30.520Z,31
2023-01-29T09:42:28.694Z,32
2023-01-29T09:43:28.347Z,32
2023-01-29T09:44:28.567Z,33
2023-01-29T09:45:28.804Z,31
2023-01-29T09:46:28.764Z,31
2023-01-29T09:47:28.744Z,36
2023-01-29T09:48:28.670Z,32
2023-01-29T09:49:28.443Z,34
2023-01-29T09:50:29.175Z,35
2023-01-29T09:51:28.457Z,32
2023-01-29T09:52:28.361Z,36
2023-01-29T09:53:29.185Z,36
2023-01-29T09:54:28.905Z,31
2023-01-29T09:55:28.889Z,37
2023-01-29T09:56:28.393Z,36
2023-01-29T09:57:28.338Z,31
2023-01-29T09:58:28.840Z,30
2023-01-29T09:59:28.454Z,30
2023-01-29T10:00:28.930Z,30
2023-01-29T10:01:28.535Z,31
2023-01-29T10:02:29.177Z,32
2023-01-29T10:03:28.846Z,32
2023-01-29T10:04:28.820Z,31
2023-01-29T10:05:29.186Z,30
2023-01-29T10:06:28.868Z,31
2023-01-29T10:07:28.780Z,31
2023-01-29T10:08:28.558Z,30
2023-01-29T10:09:28.562Z,30
2023-01-29T10:10:29.301Z,32
2023-01-29T10:11:28.353Z,29
2023-01-29T10:12:28.383Z,30
2023-01-29T10:13:28.396Z,30
2023-01-29T10:14:28.904Z,32
2023-01-29T10:15:28.373Z,37
2023-01-29T10:16:28.425Z,32
2023-01-29T10:17:28.412Z,30
2023-01-29T10:18:28.424Z,29
2023-01-29T10:19:28.421Z,29
2023-01-29T10:20:28.345Z,32
2023-01-29T10:21:28.458Z,30
2023-01-29T10:22:28.967Z,30
2023-01-29T10:23:28.427Z,29
2023-01-29T10:24:28.900Z,30
2023-01-29T10:25:28.702Z,33
2023-01-29T10:26:28.646Z,32
2023-01-29T10:27:28.351Z,30
2023-01-29T10:28:28.585Z,31
2023-01-29T10:29:29.142Z,32
2023-01-29T10:30:28.488Z,30
2023-01-29T10:31:28.573Z,31
2023-01-29T10:32:28.909Z,32
2023-01-29T10:33:29.586Z,31
2023-01-29T10:34:28.349Z,29
2023-01-29T10:35:28.348Z,30
2023-01-29T10:36:28.413Z,29
2023-01-29T10:37:28.944Z,27
2023-01-29T10:38:28.350Z,27
2023-01-29T10:39:28.369Z,28
2023-01-29T10:40:28.471Z,26
2023-01-29T10:41:28.881Z,26
2023-01-29T10:42:28.377Z,27
2023-01-29T10:43:28.400Z,28
2023-01-29T10:44:29.292Z,29
2023-01-29T10:45:28.591Z,27
2023-01-29T10:46:28.414Z,25
2023-01-29T10:47:30.246Z,26
2023-01-29T10:48:28.334Z,26
2023-01-29T10:49:29.206Z,26
2023-01-29T10:50:28.970Z,25
2023-01-29T10:51:28.717Z,27
2023-01-29T10:52:28.450Z,25
2023-01-29T10:53:28.437Z,25
2023-01-29T10:54:28.328Z,26
2023-01-29T10:55:28.430Z,25
2023-01-29T10:56:28.929Z,25
2023-01-29T10:57:28.337Z,25
2023-01-29T10:58:28.388Z,26
2023-01-29T10:59:28.334Z,24
2023-01-29T11:00:28.939Z,25
2023-01-29T11:01:28.388Z,23
2023-01-29T11:02:28.420Z,25
2023-01-29T11:03:29.162Z,24
2023-01-29T11:04:28.377Z,25
2023-01-29T11:05:28.773Z,25
2023-01-29T11:06:28.515Z,24
2023-01-29T11:07:28.872Z,24
2023-01-29T11:08:28.333Z,25
2023-01-29T11:09:29.016Z,24
2023-01-29T11:10:28.333Z,25
2023-01-29T11:11:28.355Z,25
2023-01-29T11:12:28.445Z,26
2023-01-29T11:13:28.872Z,25
2023-01-29T11:14:29.104Z,24
2023-01-29T11:15:29.200Z,25
2023-01-29T11:16:28.353Z,23
2023-01-29T11:17:28.364Z,23
2023-01-29T11:18:28.393Z,24
2023-01-29T11:19:28.613Z,23
2023-01-29T11:20:28.876Z,24
2023-01-29T11:21:28.652Z,22
2023-01-29T11:22:28.715Z,23
2023-01-29T11:23:29.411Z,22
2023-01-29T11:24:28.488Z,22
2023-01-29T11:25:28.586Z,22
2023-01-29T11:26:28.396Z,22
2023-01-29T11:27:28.881Z,21
2023-01-29T11:28:28.979Z,22
2023-01-29T11:29:28.779Z,22
2023-01-29T11:30:28.717Z,22
2023-01-29T11:31:28.484Z,23
2023-01-29T11:32:28.380Z,21
2023-01-29T11:33:28.603Z,21
2023-01-29T11:34:29.075Z,22
2023-01-29T11:35:28.367Z,22
2023-01-29T11:36:28.578Z,23
2023-01-29T11:37:29.074Z,27
2023-01-29T11:38:28.889Z,22
2023-01-29T11:39:28.439Z,22
2023-01-29T11:40:28.357Z,22
2023-01-29T11:41:29.129Z,20
2023-01-29T11:42:28.463Z,21
2023-01-29T11:43:28.326Z,20
2023-01-29T11:44:29.344Z,22
2023-01-29T11:45:28.363Z,20
2023-01-29T11:46:28.553Z,20
2023-01-29T11:47:28.898Z,19
2023-01-29T11:48:28.545Z,19
2023-01-29T11:49:28.998Z,20
2023-01-29T11:50:28.766Z,19
2023-01-29T11:51:28.416Z,23
2023-01-29T11:52:28.619Z,21
2023-01-29T11:53:28.414Z,21
2023-01-29T11:54:28.949Z,19
2023-01-29T11:55:33.104Z,20
2023-01-29T11:56:28.445Z,20
2023-01-29T11:57:29.118Z,20
2023-01-29T11:58:29.053Z,20
2023-01-29T11:59:28.971Z,21
2023-01-29T12:00:29.007Z,19
2023-01-29T12:01:29.311Z,19
2023-01-29T12:02:28.479Z,19
2023-01-29T12:03:28.382Z,21
2023-01-29T12:04:28.385Z,18
2023-01-29T12:05:28.399Z,21
2023-01-29T12:06:28.852Z,20
2023-01-29T12:07:28.409Z,20
2023-01-29T12:08:28.923Z,19
2023-01-29T12:09:28.697Z,19
2023-01-29T12:10:28.957Z,19
2023-01-29T12:11:28.390Z,20
2023-01-29T12:12:28.373Z,20
2023-01-29T12:13:28.621Z,21
2023-01-29T12:14:28.987Z,20
2023-01-29T12:15:29.163Z,21
2023-01-29T12:16:29.014Z,20
2023-01-29T12:17:29.287Z,19
2023-01-29T12:18:28.433Z,19
2023-01-29T12:19:28.400Z,20
2023-01-29T12:20:28.352Z,18
2023-01-29T12:21:29.025Z,20
2023-01-29T12:22:28.635Z,20
2023-01-29T12:23:28.432Z,20
2023-01-29T12:24:28.319Z,20
2023-01-29T12:25:28.594Z,20
2023-01-29T12:26:28.587Z,19
2023-01-29T12:27:28.944Z,19
2023-01-29T12:28:29.047Z,18
2023-01-29T12:29:28.852Z,20
2023-01-29T12:30:28.411Z,21
2023-01-29T12:31:28.422Z,22
2023-01-29T12:32:28.571Z,24
2023-01-29T12:33:29.281Z,21
2023-01-29T12:34:28.355Z,21
2023-01-29T12:35:28.891Z,23
2023-01-29T12:36:28.943Z,21
2023-01-29T12:37:28.908Z,22
2023-01-29T12:38:29.064Z,21
2023-01-29T12:39:28.521Z,21
2023-01-29T12:40:28.782Z,21
2023-01-29T12:41:28.870Z,21
2023-01-29T12:42:29.048Z,21
2023-01-29T12:43:28.855Z,21
2023-01-29T12:44:28.324Z,21
2023-01-29T12:45:28.743Z,20
2023-01-29T12:46:28.328Z,21
2023-01-29T12:47:28.355Z,20
2023-01-29T12:48:29.085Z,20
2023-01-29T12:49:28.985Z,20
2023-01-29T12:50:29.165Z,21
2023-01-29T12:51:28.390Z,20
2023-01-29T12:52:28.336Z,21
2023-01-29T12:53:28.906Z,21
2023-01-29T12:54:28.618Z,20
2023-01-29T12:55:28.601Z,21
2023-01-29T12:56:28.353Z,21
2023-01-29T12:57:29.105Z,20
2023-01-29T12:58:28.638Z,21
2023-01-29T12:59:29.399Z,21
2023-01-29T13:00:28.362Z,20
2023-01-29T13:01:29.066Z,21
2023-01-29T13:02:28.783Z,21
2023-01-29T13:03:28.685Z,21
2023-01-29T13:04:29.072Z,21
2023-01-29T13:05:28.967Z,23
2023-01-29T13:06:29.024Z,23
2023-01-29T13:07:28.648Z,20
2023-01-29T13:08:28.918Z,21
2023-01-29T13:09:28.368Z,22
2023-01-29T13:10:27.225Z,21
2023-01-29T13:11:28.406Z,21
2023-01-29T13:12:28.411Z,20
2023-01-29T13:13:28.724Z,20
2023-01-29T13:14:28.423Z,22
2023-01-29T13:15:28.324Z,21
2023-01-29T13:16:28.449Z,22
2023-01-29T13:17:28.441Z,20
2023-01-29T13:18:29.056Z,21
2023-01-29T13:19:28.511Z,21
2023-01-29T13:20:30.262Z,18
2023-01-29T13:21:28.392Z,21
2023-01-29T13:22:29.020Z,20
2023-01-29T13:23:28.379Z,21
2023-01-29T13:24:28.415Z,20
2023-01-29T13:25:28.422Z,21
2023-01-29T13:26:28.755Z,22
2023-01-29T13:27:29.021Z,21
2023-01-29T13:28:28.317Z,20
2023-01-29T13:29:28.941Z,20
2023-01-29T13:30:28.531Z,22
2023-01-29T13:31:28.522Z,21
2023-01-29T13:32:28.967Z,21
2023-01-29T13:33:28.331Z,21
2023-01-29T13:34:29.240Z,21
2023-01-29T13:35:28.745Z,21
2023-01-29T13:36:28.897Z,21
2023-01-29T13:37:28.578Z,21
2023-01-29T13:38:28.485Z,20
2023-01-29T13:39:28.920Z,20
2023-01-29T13:40:28.406Z,21
2023-01-29T13:41:28.909Z,21
2023-01-29T13:42:28.395Z,20
2023-01-29T13:43:28.641Z,21
2023-01-29T13:44:28.656Z,21
2023-01-29T13:45:28.367Z,20
2023-01-29T13:46:28.871Z,21
2023-01-29T13:47:28.332Z,21
2023-01-29T13:48:28.491Z,23
2023-01-29T13:49:28.365Z,23
2023-01-29T13:50:28.351Z,20
2023-01-29T13:51:28.353Z,19
2023-01-29T13:52:28.415Z,19
2023-01-29T13:53:28.789Z,19
2023-01-29T13:54:28.707Z,20
2023-01-29T13:55:28.345Z,19
2023-01-29T13:56:28.569Z,18
2023-01-29T13:57:28.793Z,18
2023-01-29T13:58:28.331Z,18
2023-01-29T13:59:29.099Z,21
2023-01-29T14:00:27.191Z,24
2023-01-29T14:01:28.361Z,21
2023-01-29T14:02:28.523Z,19
2023-01-29T14:03:29.957Z,20
2023-01-29T14:04:28.813Z,17
2023-01-29T14:05:29.017Z,18
2023-01-29T14:06:28.352Z,19
2023-01-29T14:07:28.364Z,19
2023-01-29T14:08:29.199Z,19
2023-01-29T14:09:28.982Z,21
2023-01-29T14:10:29.295Z,18
2023-01-29T14:11:28.309Z,15
2023-01-29T14:12:28.322Z,16
2023-01-29T14:13:28.411Z,19
2023-01-29T14:14:28.423Z,17
2023-01-29T14:15:28.414Z,18
2023-01-29T14:16:28.457Z,15